Time;durP1;ratioP1;P1;durP2;ratioP2;P2;SDS_P1;SDS_P2;PMS_P1;PMS_P2;Temp;Humidity;BMP_temperature;BMP_pressure;BME280_temperature;BME280_humidity;BME280_pressure;Samples;Min_cycle;Max_cycle;Signal;HPM_P1;HPM_P2
2023/09/08 00:01:17;;;;;;;6.72;5.80;;;;;;;18.57;100.00;101512.72;4990292;28;20026;-65
2023/09/08 00:03:42;;;;;;;7.85;6.15;;;;;;;18.55;100.00;101514.44;4990481;28;20058;-65
2023/09/08 00:06:07;;;;;;;10.50;6.90;;;;;;;18.52;100.00;101511.81;4990055;28;20105;-66
2023/09/08 00:08:33;;;;;;;6.90;6.13;;;;;;;18.48;100.00;101506.53;4990559;28;20791;-66
2023/09/08 00:10:58;;;;;;;8.05;6.80;;;;;;;18.46;100.00;101510.00;4990095;28;20255;-66
2023/09/08 00:13:23;;;;;;;7.13;6.43;;;;;;;18.41;100.00;101515.22;4990330;28;20026;-65
2023/09/08 00:15:49;;;;;;;8.02;6.57;;;;;;;18.36;100.00;101512.53;4989322;28;20037;-66
2023/09/08 00:18:14;;;;;;;7.47;6.07;;;;;;;18.34;100.00;101509.03;4990278;28;20078;-65
2023/09/08 00:20:41;;;;;;;7.85;6.20;;;;;;;18.29;100.00;101510.72;4990241;28;20030;-65
2023/09/08 00:23:07;;;;;;;5.78;5.28;;;;;;;18.24;100.00;101515.91;4972626;28;20026;-65
2023/09/08 00:25:32;;;;;;;7.15;6.18;;;;;;;18.20;100.00;101518.50;4989932;28;20442;-66
2023/09/08 00:27:57;;;;;;;7.00;6.40;;;;;;;18.17;100.00;101521.09;4990206;28;20046;-65
2023/09/08 00:30:22;;;;;;;8.38;6.65;;;;;;;18.12;100.00;101515.72;4987919;28;20493;-66
2023/09/08 00:32:48;;;;;;;7.57;6.22;;;;;;;18.08;100.00;101521.81;4979184;28;20047;-66
2023/09/08 00:35:13;;;;;;;7.93;7.18;;;;;;;18.04;100.00;101514.78;4989628;28;20031;-65
2023/09/08 00:37:40;;;;;;;7.40;6.70;;;;;;;18.00;100.00;101514.75;4989858;28;20109;-65
2023/09/08 00:40:07;;;;;;;7.32;6.55;;;;;;;17.98;100.00;101516.47;4989276;28;20026;-66
2023/09/08 00:42:32;;;;;;;7.57;6.82;;;;;;;17.96;100.00;101514.69;4989682;28;20369;-64
2023/09/08 00:44:57;;;;;;;8.60;5.90;;;;;;;17.92;100.00;101519.00;4989347;28;20029;-65
2023/09/08 00:47:23;;;;;;;7.82;7.15;;;;;;;17.87;100.00;101512.81;4990026;28;20032;-66
2023/09/08 00:49:51;;;;;;;7.53;6.28;;;;;;;17.84;100.00;101518.03;4989744;28;20053;-66
2023/09/08 00:52:16;;;;;;;6.68;6.07;;;;;;;17.80;100.00;101509.25;4989502;28;20064;-66
2023/09/08 00:54:42;;;;;;;8.38;7.57;;;;;;;17.79;100.00;101514.47;4989008;28;20081;-65
2023/09/08 00:57:08;;;;;;;8.70;7.75;;;;;;;17.74;100.00;101515.28;4989815;28;20034;-66
2023/09/08 00:59:35;;;;;;;8.93;8.13;;;;;;;17.68;100.00;101507.38;4989469;28;20034;-66
2023/09/08 01:02:02;;;;;;;8.27;7.45;;;;;;;17.63;100.00;101509.91;4989488;28;20094;-66
2023/09/08 01:04:28;;;;;;;11.13;7.72;;;;;;;17.60;100.00;101509.88;4989361;28;20038;-65
2023/09/08 01:06:55;;;;;;;8.82;7.75;;;;;;;17.56;100.00;101509.84;4990007;28;20350;-66
2023/09/08 01:09:21;;;;;;;8.88;7.22;;;;;;;17.53;100.00;101510.66;4989118;28;20026;-65
2023/09/08 01:11:47;;;;;;;8.73;7.75;;;;;;;17.51;100.00;101513.25;4989354;28;20434;-66
2023/09/08 01:14:13;;;;;;;8.10;7.30;;;;;;;17.47;100.00;101510.56;4988206;28;20111;-66
2023/09/08 01:16:40;;;;;;;9.10;7.53;;;;;;;17.42;100.00;101510.50;4989648;28;20038;-65
2023/09/08 01:19:10;;;;;;;9.57;7.70;;;;;;;17.38;100.00;101504.34;4989059;28;20050;-65
2023/09/08 01:22:14;;;;;;;9.48;7.57;;;;;;;17.34;100.00;101501.66;4988954;28;20057;-66
2023/09/08 01:25:17;;;;;;;9.95;8.27;;;;;;;17.29;100.00;101506.81;4989661;28;20672;-65
2023/09/08 01:27:46;;;;;;;10.50;7.88;;;;;;;17.25;100.00;101511.13;4988690;28;20054;-65
2023/09/08 01:30:13;;;;;;;10.20;7.85;;;;;;;17.23;100.00;101510.25;4988386;28;20018;-66
2023/09/08 01:32:40;;;;;;;9.48;8.07;;;;;;;17.19;100.00;101508.44;4976359;28;20413;-64
2023/09/08 01:35:06;;;;;;;8.82;7.97;;;;;;;17.17;100.00;101518.00;4988401;28;20113;-65
2023/09/08 01:37:31;;;;;;;10.52;8.13;;;;;;;17.14;100.00;101510.09;4989036;28;20027;-65
2023/09/08 01:39:56;;;;;;;9.85;9.00;;;;;;;17.11;100.00;101507.41;4988697;28;20481;-64
2023/09/08 01:42:22;;;;;;;9.60;8.65;;;;;;;17.05;100.00;101511.66;4988291;28;20072;-66
2023/09/08 01:44:47;;;;;;;10.93;8.40;;;;;;;17.02;100.00;101510.75;4988757;28;20033;-66
2023/09/08 01:47:12;;;;;;;10.50;9.43;;;;;;;17.00;100.00;101515.09;4988967;28;20034;-65
2023/09/08 01:49:38;;;;;;;10.38;9.40;;;;;;;16.95;100.00;101512.38;4988735;28;20026;-65
2023/09/08 01:52:03;;;;;;;11.60;9.90;;;;;;;16.93;100.00;101514.09;4989086;28;20014;-66
2023/09/08 01:54:29;;;;;;;10.13;9.00;;;;;;;16.90;100.00;101512.31;4988570;28;20110;-63
2023/09/08 01:56:54;;;;;;;10.50;9.27;;;;;;;16.89;100.00;101512.31;4988685;28;20470;-65
2023/09/08 01:59:19;;;;;;;10.02;9.02;;;;;;;16.87;100.00;101507.06;4988193;28;20038;-63
2023/09/08 02:01:44;;;;;;;9.38;8.55;;;;;;;16.85;100.00;101502.63;4988836;28;20034;-66
2023/09/08 02:04:10;;;;;;;8.18;7.45;;;;;;;16.84;100.00;101504.34;4988641;28;20049;-63
2023/09/08 02:06:35;;;;;;;9.82;8.98;;;;;;;16.80;100.00;101511.28;4988518;28;20456;-65
2023/09/08 02:09:00;;;;;;;9.40;8.50;;;;;;;16.75;100.00;101506.81;4987974;28;20022;-65
2023/09/08 02:11:26;;;;;;;10.73;9.63;;;;;;;16.73;100.00;101504.19;4988330;28;20478;-65
2023/09/08 02:13:51;;;;;;;11.75;10.50;;;;;;;16.69;100.00;101499.78;4988263;28;20019;-66
2023/09/08 02:16:17;;;;;;;12.52;10.43;;;;;;;16.68;100.00;101505.84;4988430;28;20114;-65
2023/09/08 02:18:43;;;;;;;10.60;9.57;;;;;;;16.64;100.00;101502.28;4987985;28;20033;-65
2023/09/08 02:21:09;;;;;;;11.00;9.90;;;;;;;16.61;100.00;101498.75;4988591;28;20043;-66
2023/09/08 02:23:34;;;;;;;12.10;10.93;;;;;;;16.56;100.00;101507.41;4988084;28;20485;-63
2023/09/08 02:25:59;;;;;;;11.18;10.15;;;;;;;16.54;100.00;101502.97;4975367;28;20057;-66
2023/09/08 02:28:24;;;;;;;12.10;10.70;;;;;;;16.51;100.00;101498.59;4987665;28;20053;-65
2023/09/08 02:30:50;;;;;;;10.40;9.52;;;;;;;16.47;100.00;101496.78;4982315;28;20027;-66
2023/09/08 02:33:16;;;;;;;11.63;10.50;;;;;;;16.43;100.00;101490.59;4980729;28;20497;-66
2023/09/08 02:35:41;;;;;;;11.75;10.73;;;;;;;16.40;100.00;101494.91;4988127;28;20018;-65
2023/09/08 02:38:07;;;;;;;12.82;11.68;;;;;;;16.37;100.00;101490.47;4988022;28;20470;-65
2023/09/08 02:40:34;;;;;;;12.43;11.32;;;;;;;16.37;100.00;101495.72;4990554;28;20023;-65
2023/09/08 02:43:03;;;;;;;12.68;11.38;;;;;;;16.32;100.00;101487.78;4992170;28;20022;-66
2023/09/08 02:45:28;;;;;;;13.20;11.93;;;;;;;16.27;100.00;101489.44;4991866;28;20025;-65
2023/09/08 02:47:54;;;;;;;11.85;10.75;;;;;;;16.23;100.00;101492.84;4991461;28;20420;-65
2023/09/08 02:50:19;;;;;;;11.75;10.65;;;;;;;16.19;100.00;101494.50;4991884;28;20049;-65
2023/09/08 02:52:45;;;;;;;12.85;11.63;;;;;;;16.17;100.00;101492.75;4991948;28;20390;-65
2023/09/08 02:55:11;;;;;;;11.45;10.43;;;;;;;16.14;100.00;101493.53;4991669;28;20129;-65
2023/09/08 02:57:36;;;;;;;11.50;10.40;;;;;;;16.13;100.00;101494.41;4991523;28;20033;-65
2023/09/08 03:00:04;;;;;;;12.00;11.00;;;;;;;16.12;100.00;101497.00;4991399;28;20030;-64
2023/09/08 03:02:30;;;;;;;11.55;10.32;;;;;;;16.10;100.00;101498.69;4992308;28;20057;-65
2023/09/08 03:04:55;;;;;;;10.43;9.43;;;;;;;16.08;100.00;101499.53;4991361;28;20073;-66
2023/09/08 03:07:21;;;;;;;11.23;10.18;;;;;;;16.06;100.00;101490.78;4991905;28;20070;-65
2023/09/08 03:09:46;;;;;;;11.50;10.40;;;;;;;16.02;100.00;101494.19;4991630;28;20447;-65
2023/09/08 03:12:12;;;;;;;12.45;11.20;;;;;;;15.99;100.00;101488.88;4991605;28;20030;-66
2023/09/08 03:14:37;;;;;;;11.00;10.00;;;;;;;15.99;100.00;101495.84;4990765;28;20386;-65
2023/09/08 03:17:02;;;;;;;11.43;10.35;;;;;;;15.96;100.00;101500.16;4979538;28;20030;-65
2023/09/08 03:19:28;;;;;;;12.93;11.75;;;;;;;15.94;100.00;101495.72;4990443;28;20022;-65
2023/09/08 03:21:53;;;;;;;11.43;10.10;;;;;;;15.92;100.00;101494.84;4991255;28;20034;-66
2023/09/08 03:24:18;;;;;;;10.52;9.55;;;;;;;15.90;100.00;101491.31;4991218;28;20029;-65
2023/09/08 03:26:43;;;;;;;11.45;10.45;;;;;;;15.87;100.00;101492.13;4991001;28;20084;-65
2023/09/08 03:29:09;;;;;;;12.65;11.27;;;;;;;15.84;100.00;101498.19;4991264;28;20585;-66
2023/09/08 03:31:34;;;;;;;12.43;11.23;;;;;;;15.81;100.00;101495.47;4979761;28;20031;-65
2023/09/08 03:33:59;;;;;;;10.80;9.75;;;;;;;15.78;100.00;101495.41;4989532;28;20046;-65
2023/09/08 03:36:25;;;;;;;12.10;10.90;;;;;;;15.75;100.00;101492.75;4990875;28;20030;-65
2023/09/08 03:38:50;;;;;;;11.68;10.55;;;;;;;15.73;100.00;101484.00;4990997;28;20022;-63
2023/09/08 03:41:15;;;;;;;11.27;10.20;;;;;;;15.72;100.00;101482.25;4991205;28;20493;-66
2023/09/08 03:43:41;;;;;;;12.13;10.75;;;;;;;15.71;100.00;101477.84;4990934;28;20018;-66
2023/09/08 03:46:06;;;;;;;12.35;11.15;;;;;;;15.69;100.00;101484.78;4991087;28;20161;-65
2023/09/08 03:48:31;;;;;;;13.27;10.98;;;;;;;15.65;100.00;101481.22;4990106;28;20014;-64
2023/09/08 03:50:56;;;;;;;11.57;10.55;;;;;;;15.61;100.00;101477.66;4989812;28;20019;-65
2023/09/08 03:53:22;;;;;;;12.48;10.85;;;;;;;15.61;100.00;101477.66;4991305;28;20509;-64
2023/09/08 03:55:47;;;;;;;11.68;10.63;;;;;;;15.60;100.00;101481.13;4991388;28;20028;-65
2023/09/08 03:58:12;;;;;;;14.13;10.85;;;;;;;15.57;100.00;101478.47;4990883;28;20105;-65
2023/09/08 04:00:37;;;;;;;13.15;10.77;;;;;;;15.53;100.00;101476.63;4991011;28;20029;-65
2023/09/08 04:03:03;;;;;;;11.25;10.25;;;;;;;15.52;100.00;101474.88;4990798;28;20018;-65
2023/09/08 04:05:29;;;;;;;11.07;10.07;;;;;;;15.51;100.00;101475.69;4991216;28;20030;-65
2023/09/08 04:07:54;;;;;;;11.55;10.45;;;;;;;15.50;100.00;101479.19;4991073;28;20085;-65
2023/09/08 04:10:19;;;;;;;13.15;10.90;;;;;;;15.51;100.00;101477.44;4990994;28;20500;-65
2023/09/08 04:12:45;;;;;;;13.02;11.02;;;;;;;15.48;100.00;101475.66;4990883;28;20376;-65
2023/09/08 04:15:10;;;;;;;12.27;11.18;;;;;;;15.48;100.00;101470.41;4991141;28;20030;-64
2023/09/08 04:17:37;;;;;;;11.43;10.25;;;;;;;15.50;100.00;101468.72;4991242;28;20366;-65
2023/09/08 04:20:06;;;;;;;13.07;11.75;;;;;;;15.53;100.00;101466.19;4990708;28;20023;-65
2023/09/08 04:22:32;;;;;;;12.57;11.48;;;;;;;15.52;100.00;101467.03;4990589;28;20022;-65
2023/09/08 04:24:58;;;;;;;12.88;11.57;;;;;;;15.52;100.00;101467.03;4991390;28;20037;-65
2023/09/08 04:27:23;;;;;;;12.30;11.02;;;;;;;15.53;100.00;101473.13;4990573;28;20047;-65
2023/09/08 04:29:48;;;;;;;11.85;10.52;;;;;;;15.55;100.00;101461.88;4990265;28;20045;-65
2023/09/08 04:32:14;;;;;;;13.93;12.30;;;;;;;15.58;100.00;101461.94;4977660;28;20513;-65
2023/09/08 04:34:40;;;;;;;12.13;10.90;;;;;;;15.60;100.00;101469.78;4990574;28;20058;-65
2023/09/08 04:37:06;;;;;;;13.65;12.35;;;;;;;15.63;100.00;101466.38;4990901;28;20250;-65
2023/09/08 04:39:32;;;;;;;12.30;11.20;;;;;;;15.63;100.00;101464.66;4990599;28;20034;-65
2023/09/08 04:41:57;;;;;;;12.75;11.55;;;;;;;15.66;100.00;101464.72;4989485;28;20486;-65
2023/09/08 04:44:23;;;;;;;16.42;11.23;;;;;;;15.67;100.00;101468.22;4990537;28;20057;-65
2023/09/08 04:46:48;;;;;;;12.65;11.45;;;;;;;15.68;100.00;101467.34;4990085;28;20018;-64
2023/09/08 04:49:13;;;;;;;12.75;11.65;;;;;;;15.67;100.00;101470.81;4990059;28;20018;-63
2023/09/08 04:51:39;;;;;;;11.55;10.45;;;;;;;15.66;100.00;101469.03;4988091;28;20026;-64
2023/09/08 04:54:04;;;;;;;12.25;11.05;;;;;;;15.66;100.00;101469.03;4988927;28;20030;-63
2023/09/08 04:56:29;;;;;;;12.38;11.25;;;;;;;15.66;100.00;101469.03;4988443;28;20025;-64
2023/09/08 04:58:55;;;;;;;14.07;11.15;;;;;;;15.66;100.00;101469.03;4989362;28;20027;-65
2023/09/08 05:01:21;;;;;;;12.80;11.57;;;;;;;15.65;100.00;101473.38;4988737;28;20058;-65
2023/09/08 05:03:46;;;;;;;17.88;13.10;;;;;;;15.65;100.00;101476.00;4988927;28;20125;-65
2023/09/08 05:06:11;;;;;;;13.82;12.48;;;;;;;15.65;100.00;101476.00;4988976;28;20458;-65
2023/09/08 05:08:36;;;;;;;13.05;11.77;;;;;;;15.66;100.00;101472.53;4988834;28;20098;-62
2023/09/08 05:11:02;;;;;;;12.77;11.68;;;;;;;15.69;100.00;101479.56;4989273;28;20064;-65
2023/09/08 05:13:28;;;;;;;14.15;12.38;;;;;;;15.70;100.00;101476.09;4988720;28;20026;-65
2023/09/08 05:15:59;;;;;;;13.65;11.45;;;;;;;15.71;100.00;101475.25;4989420;28;20034;-65
2023/09/08 05:18:26;;;;;;;14.48;12.82;;;;;;;15.73;100.00;101486.59;4988986;28;20033;-64
2023/09/08 05:20:51;;;;;;;12.80;11.55;;;;;;;15.72;100.00;101480.50;4988964;28;20026;-65
2023/09/08 05:23:16;;;;;;;14.10;12.32;;;;;;;15.74;100.00;101483.13;4988723;28;20026;-64
2023/09/08 05:25:42;;;;;;;14.20;12.80;;;;;;;15.73;100.00;101484.00;4988882;28;20036;-65
2023/09/08 05:28:07;;;;;;;13.27;11.98;;;;;;;15.74;100.00;101485.75;4988671;28;20150;-65
2023/09/08 05:30:33;;;;;;;12.48;11.38;;;;;;;15.74;100.00;101488.34;4985712;28;20054;-65
2023/09/08 05:32:58;;;;;;;13.68;12.38;;;;;;;15.73;100.00;101486.59;4978046;28;20034;-65
2023/09/08 05:35:24;;;;;;;14.30;12.90;;;;;;;15.76;100.00;101485.81;4988733;28;20029;-65
2023/09/08 05:37:49;;;;;;;14.43;13.02;;;;;;;15.77;100.00;101490.16;4987441;28;20034;-65
2023/09/08 05:40:14;;;;;;;14.82;12.55;;;;;;;15.80;100.00;101487.63;4988640;28;20458;-65
2023/09/08 05:42:40;;;;;;;14.32;13.02;;;;;;;15.84;100.00;101489.44;4988595;28;20030;-65
2023/09/08 05:45:05;;;;;;;13.65;12.15;;;;;;;15.90;100.00;101493.94;4967986;28;20429;-64
2023/09/08 05:47:31;;;;;;;14.63;12.52;;;;;;;15.95;100.00;101494.91;4979741;28;20041;-65
2023/09/08 05:49:56;;;;;;;13.43;12.05;;;;;;;16.01;100.00;101489.81;4983617;28;20466;-62
2023/09/08 05:52:21;;;;;;;14.00;12.55;;;;;;;16.08;100.00;101502.16;4981803;28;20026;-66
2023/09/08 05:54:46;;;;;;;13.68;12.38;;;;;;;16.16;100.00;101502.31;4985834;28;20109;-62
2023/09/08 05:57:12;;;;;;;15.07;12.68;;;;;;;16.25;100.00;101496.38;4980702;28;20478;-66
2023/09/08 05:59:37;;;;;;;14.38;12.88;;;;;;;16.32;100.00;101493.03;4983435;28;20023;-64
2023/09/08 06:02:02;;;;;;;13.88;12.48;;;;;;;16.42;100.00;101501.03;4980787;28;20030;-63
2023/09/08 06:04:28;;;;;;;13.93;12.70;;;;;;;16.50;100.00;101501.16;4983037;28;20054;-65
2023/09/08 06:06:53;;;;;;;13.65;12.35;;;;;;;16.58;100.00;101494.34;4979576;28;20030;-65
2023/09/08 06:09:18;;;;;;;16.33;12.50;;;;;;;16.66;100.00;101497.97;4984001;28;20073;-65
2023/09/08 06:11:43;;;;;;;13.10;11.88;;;;;;;16.74;100.00;101498.09;4974920;28;20026;-65
2023/09/08 06:14:09;;;;;;;13.60;11.73;;;;;;;16.84;100.00;101504.34;4987746;28;20446;-65
2023/09/08 06:16:35;;;;;;;14.60;12.38;;;;;;;16.92;100.00;101507.13;4988910;28;20022;-65
2023/09/08 06:19:03;;;;;;;12.73;11.50;;;;;;;17.00;100.00;101509.88;4988760;28;20061;-66
2023/09/08 06:21:28;;;;;;;12.50;11.20;;;;;;;17.08;100.00;101504.72;4987719;28;20470;-66
2023/09/08 06:23:53;;;;;;;12.43;11.18;;;;;;;17.18;100.00;101501.41;4987718;28;20026;-66
2023/09/08 06:26:19;;;;;;;11.57;10.57;;;;;;;17.27;100.00;101506.81;4987331;28;20030;-66
2023/09/08 06:28:45;;;;;;;12.75;11.45;;;;;;;17.36;100.00;101505.19;4987507;28;20054;-65
2023/09/08 06:31:10;;;;;;;12.15;11.15;;;;;;;17.45;100.00;101507.91;4982502;28;20497;-65
2023/09/08 06:33:35;;;;;;;13.05;11.95;;;;;;;17.56;100.00;101501.97;4992905;28;20296;-65
2023/09/08 06:36:00;;;;;;;13.10;11.90;;;;;;;17.64;100.00;101508.19;4988600;28;20027;-65
2023/09/08 06:38:26;;;;;;;14.15;11.32;;;;;;;17.76;100.00;101508.34;4988048;28;20047;-64
2023/09/08 06:40:52;;;;;;;12.63;11.43;;;;;;;17.87;100.00;101511.09;4988509;28;20026;-65
2023/09/08 06:43:18;;;;;;;12.48;11.27;;;;;;;18.00;100.00;101509.50;4982679;28;20038;-65
2023/09/08 06:45:48;;;;;;;12.23;10.93;;;;;;;18.13;100.00;101517.50;4986268;28;20027;-65
2023/09/08 06:48:14;;;;;;;12.88;11.70;;;;;;;18.29;100.00;101520.31;4983258;28;20478;-66
2023/09/08 06:50:39;;;;;;;12.38;11.27;;;;;;;18.45;100.00;101522.25;4978944;28;20078;-63
2023/09/08 06:53:04;;;;;;;12.32;11.27;;;;;;;18.80;100.00;101519.91;4976588;28;20034;-65
2023/09/08 06:55:29;;;;;;;12.57;11.30;;;;;;;19.27;100.00;101522.91;4977948;28;20038;-64
2023/09/08 06:57:55;;;;;;;12.55;11.32;;;;;;;19.68;100.00;101514.38;4978367;28;20029;-66
2023/09/08 07:00:20;;;;;;;12.00;10.90;;;;;;;20.08;100.00;101531.22;4984163;28;20105;-66
2023/09/08 07:02:45;;;;;;;12.30;11.15;;;;;;;20.32;100.00;101523.41;4984849;28;20039;-64
2023/09/08 07:05:11;;;;;;;11.70;10.70;;;;;;;20.40;100.00;101529.53;4984363;28;20399;-66
2023/09/08 07:07:37;;;;;;;11.48;10.38;;;;;;;20.59;100.00;101527.84;4975429;28;20052;-66
2023/09/08 07:10:03;;;;;;;12.25;11.05;;;;;;;20.60;100.00;101534.84;4987567;28;20483;-66
2023/09/08 07:12:29;;;;;;;13.20;10.57;;;;;;;20.78;100.00;101530.47;4987416;28;20066;-66
2023/09/08 07:14:54;;;;;;;12.32;11.32;;;;;;;20.97;100.00;101531.38;4987897;28;20473;-66
2023/09/08 07:17:19;;;;;;;11.00;10.07;;;;;;;21.26;100.00;101533.97;4984668;28;20037;-66
2023/09/08 07:19:45;;;;;;;11.38;10.27;;;;;;;21.56;100.00;101535.66;4987805;28;20113;-66
2023/09/08 07:22:10;;;;;;;11.07;10.07;;;;;;;21.88;100.00;101536.44;4987848;28;20109;-64
2023/09/08 07:24:35;;;;;;;11.82;10.52;;;;;;;22.13;100.00;101535.44;4988048;28;20442;-66
2023/09/08 07:27:00;;;;;;;10.75;9.75;;;;;;;22.52;100.00;101532.56;4991595;28;20239;-66
2023/09/08 07:29:26;;;;;;;11.90;10.77;;;;;;;22.77;100.00;101541.19;4991600;28;20020;-65
2023/09/08 07:31:51;;;;;;;12.57;9.73;;;;;;;23.15;100.00;101547.03;4990507;28;20426;-66
2023/09/08 07:34:16;;;;;;;11.40;9.57;;;;;;;23.43;100.00;101543.25;4990447;28;20525;-66
2023/09/08 07:36:42;;;;;;;10.05;9.13;;;;;;;23.93;100.00;101547.97;4986981;28;20034;-66
2023/09/08 07:39:07;;;;;;;10.77;9.85;;;;;;;24.40;97.55;101546.47;4987669;28;20019;-66
2023/09/08 07:41:32;;;;;;;10.20;9.30;;;;;;;24.82;93.63;101540.50;4988976;28;20027;-66
2023/09/08 07:43:57;;;;;;;10.85;9.75;;;;;;;25.16;90.73;101536.41;4988580;28;20452;-65
2023/09/08 07:46:23;;;;;;;10.20;9.20;;;;;;;25.41;91.60;101539.47;4967092;28;20089;-67
2023/09/08 07:48:48;;;;;;;10.88;9.75;;;;;;;25.68;90.40;101538.09;4990960;28;20021;-66
2023/09/08 07:51:13;;;;;;;9.60;8.55;;;;;;;25.83;87.70;101532.47;4991547;28;20434;-67
2023/09/08 07:53:39;;;;;;;9.82;8.77;;;;;;;26.08;85.94;101542.56;4991583;28;20110;-66
2023/09/08 07:56:04;;;;;;;10.52;9.43;;;;;;;26.35;85.72;101545.53;4988487;28;20033;-65
2023/09/08 07:58:29;;;;;;;10.95;10.00;;;;;;;26.58;84.41;101541.44;4989026;28;20022;-66
2023/09/08 08:00:54;;;;;;;10.02;8.38;;;;;;;26.80;81.97;101540.00;4991060;28;20046;-67
2023/09/08 08:03:20;;;;;;;9.88;9.02;;;;;;;27.02;81.59;101535.00;4990876;28;20025;-66
2023/09/08 08:05:45;;;;;;;10.52;9.63;;;;;;;27.36;76.25;101533.25;4991784;28;20458;-66
2023/09/08 08:08:10;;;;;;;8.70;7.93;;;;;;;27.57;77.20;101536.19;4987883;28;20026;-66
2023/09/08 08:10:35;;;;;;;9.23;8.32;;;;;;;27.65;78.23;101536.00;4980891;28;20494;-66
2023/09/08 08:13:01;;;;;;;9.32;8.52;;;;;;;27.84;74.33;101530.13;4989021;28;20073;-67
2023/09/08 08:15:40;;;;;;;8.32;7.53;;;;;;;28.05;77.28;101540.13;4987487;28;20462;-67
2023/09/08 08:18:06;;;;;;;8.38;7.65;;;;;;;28.15;75.15;101543.34;4983595;28;20440;-67
2023/09/08 08:20:34;;;;;;;9.98;7.78;;;;;;;28.12;75.76;101535.47;4988239;28;20030;-67
2023/09/08 08:23:04;;;;;;;8.52;7.82;;;;;;;28.30;70.57;101538.47;4990985;28;20656;-64
2023/09/08 08:25:30;;;;;;;9.23;8.27;;;;;;;28.23;70.33;101545.78;4983404;28;20105;-67
2023/09/08 08:28:00;;;;;;;7.78;7.13;;;;;;;28.62;71.93;101547.22;4990250;28;20130;-67
2023/09/08 08:30:26;;;;;;;7.30;6.70;;;;;;;28.86;72.05;101555.31;4990445;28;20433;-66
2023/09/08 08:32:53;;;;;;;12.65;7.75;;;;;;;29.08;69.42;101548.41;4985987;28;20026;-66
2023/09/08 08:35:19;;;;;;;7.35;6.63;;;;;;;29.18;71.03;101544.47;4986598;28;20023;-66
2023/09/08 08:37:44;;;;;;;7.45;6.78;;;;;;;29.25;70.84;101551.31;4989583;28;20025;-65
2023/09/08 08:40:13;;;;;;;7.15;6.40;;;;;;;29.23;67.39;101549.66;4989477;28;20419;-66
2023/09/08 08:42:39;;;;;;;7.38;6.63;;;;;;;29.13;66.75;101562.44;4989681;28;20030;-66
2023/09/08 08:45:05;;;;;;;6.40;5.90;;;;;;;28.95;66.53;101563.91;4988532;28;20082;-66
2023/09/08 08:47:31;;;;;;;9.45;6.38;;;;;;;28.98;65.80;101558.50;4990097;28;20066;-66
2023/09/08 08:49:59;;;;;;;6.60;6.00;;;;;;;29.06;66.75;101550.25;4990119;28;20042;-67
2023/09/08 08:52:25;;;;;;;6.95;5.60;;;;;;;29.15;67.97;101549.03;4988610;28;20026;-65
2023/09/08 08:54:51;;;;;;;6.60;6.07;;;;;;;29.16;65.18;101545.47;4989795;28;20109;-67
2023/09/08 08:57:16;;;;;;;6.28;5.68;;;;;;;29.12;66.58;101536.72;4988252;28;20478;-67
2023/09/08 08:59:42;;;;;;;9.27;6.32;;;;;;;29.14;65.61;101542.88;4988281;28;20030;-67
2023/09/08 09:02:11;;;;;;;6.28;5.65;;;;;;;29.20;65.78;101544.41;4988216;28;20470;-67
2023/09/08 09:04:37;;;;;;;7.63;6.20;;;;;;;29.28;65.47;101549.47;4986933;28;20041;-67
2023/09/08 09:07:05;;;;;;;9.48;6.47;;;;;;;29.24;65.47;101544.25;4988478;28;20109;-67
2023/09/08 09:09:30;;;;;;;6.50;5.90;;;;;;;29.21;66.62;101544.38;4988786;28;20101;-67
2023/09/08 09:11:55;;;;;;;6.03;5.53;;;;;;;29.28;67.88;101544.16;4989542;28;20101;-67
2023/09/08 09:14:22;;;;;;;7.60;5.70;;;;;;;29.31;66.00;101552.03;4989476;28;20302;-67
2023/09/08 09:16:48;;;;;;;6.05;5.40;;;;;;;29.29;67.48;101548.56;4977815;28;20018;-67
2023/09/08 09:19:27;;;;;;;6.38;5.75;;;;;;;29.26;65.38;101541.53;4989859;28;20640;-65
2023/09/08 09:21:54;;;;;;;6.95;6.05;;;;;;;29.27;66.78;101547.75;4989324;28;20026;-67
2023/09/08 09:24:30;;;;;;;6.97;6.28;;;;;;;29.32;65.98;101548.44;4990149;28;20053;-67
2023/09/08 09:26:56;;;;;;;8.40;6.03;;;;;;;29.39;65.28;101541.09;4989469;28;20042;-67
2023/09/08 09:29:21;;;;;;;8.98;6.50;;;;;;;29.43;65.59;101542.72;4989451;28;20081;-67
2023/09/08 09:32:07;;;;;;;7.30;6.70;;;;;;;29.27;66.18;101537.09;4989901;28;20026;-67
2023/09/08 09:34:34;;;;;;;6.72;6.13;;;;;;;29.21;65.34;101544.38;4988182;28;20037;-67
2023/09/08 09:36:59;;;;;;;6.68;6.07;;;;;;;29.14;65.57;101537.53;4989345;28;20030;-66
2023/09/08 09:39:26;;;;;;;6.38;5.65;;;;;;;29.08;70.12;101543.94;4989732;28;20048;-67
2023/09/08 09:41:56;;;;;;;6.55;5.90;;;;;;;29.03;68.91;101551.25;4988251;28;20281;-67
2023/09/08 09:44:22;;;;;;;6.07;5.47;;;;;;;29.08;68.69;101543.06;4977040;28;20391;-67
2023/09/08 09:46:48;;;;;;;6.13;5.60;;;;;;;29.03;70.77;101537.91;4988972;28;20027;-67
2023/09/08 09:49:17;;;;;;;7.55;5.45;;;;;;;29.05;70.15;101544.06;4988243;28;20041;-67
2023/09/08 09:51:44;;;;;;;7.88;6.32;;;;;;;29.06;70.50;101542.25;4988941;28;20212;-65
2023/09/08 09:54:09;;;;;;;5.97;5.35;;;;;;;29.09;70.89;101539.50;4989184;28;20374;-67
2023/09/08 09:56:37;;;;;;;6.72;5.43;;;;;;;29.11;71.37;101542.94;4989335;28;20026;-65
2023/09/08 09:59:03;;;;;;;6.40;5.85;;;;;;;29.10;69.07;101541.22;4989021;28;20113;-67
2023/09/08 10:01:29;;;;;;;8.10;5.60;;;;;;;29.11;70.38;101543.81;4970968;28;20030;-67
2023/09/08 10:03:55;;;;;;;6.55;5.88;;;;;;;29.06;68.12;101535.13;4989064;28;20030;-67
2023/09/08 10:06:21;;;;;;;6.93;5.88;;;;;;;29.02;67.90;101532.63;4976529;28;20022;-67
2023/09/08 10:08:47;;;;;;;5.70;5.15;;;;;;;29.06;68.42;101536.91;4988699;28;20026;-67
2023/09/08 10:11:19;;;;;;;5.93;5.32;;;;;;;29.08;69.03;101532.41;4988481;28;20026;-67
2023/09/08 10:13:50;;;;;;;5.63;5.13;;;;;;;29.08;68.17;101537.72;4989048;28;20026;-67
2023/09/08 10:16:15;;;;;;;;;;;;;;;29.09;66.24;101534.16;4989105;28;20030;-67
2023/09/08 10:18:45;;;;;;;5.70;5.30;;;;;;;29.08;70.22;101532.41;4989135;28;20165;-67
2023/09/08 10:21:12;;;;;;;6.07;5.47;;;;;;;29.12;68.40;101534.03;4989353;28;20126;-66
2023/09/08 10:23:43;;;;;;;5.32;4.78;;;;;;;29.10;67.70;101530.56;4988732;28;20545;-66
2023/09/08 10:26:11;;;;;;;7.53;5.65;;;;;;;29.14;70.33;101542.88;4986333;28;20022;-66
2023/09/08 10:28:37;;;;;;;6.35;5.05;;;;;;;29.16;70.07;101529.47;4988249;28;20046;-66
2023/09/08 10:31:04;;;;;;;6.80;5.68;;;;;;;29.21;70.73;101539.03;4988565;28;20438;-67
2023/09/08 10:33:31;;;;;;;7.80;5.97;;;;;;;29.27;70.17;101542.41;4988563;28;20026;-67
2023/09/08 10:35:58;;;;;;;6.05;5.60;;;;;;;29.28;70.08;101530.81;4988551;28;20037;-65
2023/09/08 10:38:24;;;;;;;5.88;5.32;;;;;;;29.31;70.98;101538.69;4987982;28;20042;-67
2023/09/08 10:40:50;;;;;;;6.00;5.40;;;;;;;29.37;70.71;101535.81;4987712;28;20030;-66
2023/09/08 10:43:15;;;;;;;6.38;5.50;;;;;;;29.33;69.47;101531.50;4988232;28;20049;-67
2023/09/08 10:45:43;;;;;;;6.05;5.57;;;;;;;29.42;69.83;101527.63;4986985;28;20437;-67
2023/09/08 10:48:09;;;;;;;6.32;5.43;;;;;;;29.51;69.08;101527.28;4986176;28;20034;-64
2023/09/08 10:50:38;;;;;;;6.88;5.60;;;;;;;29.60;70.25;101528.72;4987026;28;20618;-67
2023/09/08 10:53:04;;;;;;;7.10;5.47;;;;;;;29.61;67.43;101527.81;4985827;28;20482;-67
2023/09/08 10:55:53;;;;;;;5.65;5.22;;;;;;;29.59;69.48;101521.66;4968723;28;20042;-66
2023/09/08 10:58:20;;;;;;;7.30;5.30;;;;;;;29.63;68.61;101527.78;4981315;28;20034;-66
2023/09/08 11:00:50;;;;;;;5.75;5.30;;;;;;;29.68;69.34;101526.66;4989055;28;20034;-67
2023/09/08 11:03:27;;;;;;;5.75;5.22;;;;;;;29.71;68.83;101523.00;4990807;28;20042;-67
2023/09/08 11:05:53;;;;;;;6.30;5.70;;;;;;;29.72;70.13;101517.63;4991555;28;20026;-67
2023/09/08 11:08:18;;;;;;;8.02;5.47;;;;;;;29.83;71.05;101525.22;4972317;28;20029;-67